createdAt,value
2018-04-11T00:01:04.126Z,42.30
2018-04-11T00:03:30.357Z,42.30
2018-04-11T00:05:57.309Z,42.50
2018-04-11T00:08:23.557Z,42.50
2018-04-11T00:10:50.128Z,42.50
2018-04-11T00:13:16.600Z,42.60
2018-04-11T00:15:42.850Z,42.60
2018-04-11T00:18:09.019Z,42.70
2018-04-11T00:20:35.642Z,42.70
2018-04-11T00:23:02.289Z,42.80
2018-04-11T00:25:29.396Z,42.90
2018-04-11T00:27:55.561Z,42.90
2018-04-11T00:30:21.797Z,43.00
2018-04-11T00:32:48.778Z,43.20
2018-04-11T00:35:15.008Z,43.20
2018-04-11T00:37:41.196Z,43.20
2018-04-11T00:40:08.309Z,43.50
2018-04-11T00:42:34.536Z,43.50
2018-04-11T00:45:00.740Z,43.50
2018-04-11T00:47:26.996Z,43.60
2018-04-11T00:49:53.223Z,43.70
2018-04-11T00:52:19.536Z,43.70
2018-04-11T00:54:45.778Z,43.80
2018-04-11T00:57:12.010Z,43.90
2018-04-11T00:59:38.179Z,44.00
2018-04-11T01:02:04.363Z,44.10
2018-04-11T01:04:30.503Z,44.20
2018-04-11T01:06:56.706Z,44.30
2018-04-11T01:09:22.873Z,44.40
2018-04-11T01:11:49.076Z,44.40
2018-04-11T01:14:15.275Z,44.50
2018-04-11T01:16:41.445Z,44.60
2018-04-11T01:19:07.694Z,44.70
2018-04-11T01:21:33.885Z,44.80
2018-04-11T01:24:00.069Z,44.90
2018-04-11T01:26:33.101Z,45.00
2018-04-11T01:28:59.318Z,45.00
2018-04-11T01:31:25.799Z,45.10
2018-04-11T01:33:52.388Z,45.20
2018-04-11T01:36:18.614Z,45.30
2018-04-11T01:38:44.840Z,45.50
2018-04-11T01:41:11.589Z,45.70
2018-04-11T01:43:37.787Z,45.70
2018-04-11T01:46:03.974Z,45.90
2018-04-11T01:48:30.173Z,45.90
2018-04-11T01:50:57.170Z,46.20
2018-04-11T01:53:23.411Z,46.10
2018-04-11T01:55:49.565Z,46.20
2018-04-11T01:58:15.710Z,46.30
2018-04-11T02:00:41.837Z,46.30
2018-04-11T02:03:08.048Z,46.40
2018-04-11T02:05:34.280Z,46.60
2018-04-11T02:08:01.138Z,46.60
2018-04-11T02:10:27.896Z,46.70
2018-04-11T02:12:54.233Z,46.80
2018-04-11T02:15:21.822Z,46.90
2018-04-11T02:17:49.127Z,46.90
2018-04-11T02:20:19.583Z,47.00
2018-04-11T02:22:46.273Z,47.00
2018-04-11T02:25:12.820Z,47.00
2018-04-11T02:27:40.247Z,47.20
2018-04-11T02:30:07.239Z,47.30
2018-04-11T02:32:34.307Z,47.40
2018-04-11T02:35:00.552Z,47.50
2018-04-11T02:37:26.707Z,47.50
2018-04-11T02:39:52.847Z,47.60
2018-04-11T02:42:19.051Z,47.60
2018-04-11T02:44:45.364Z,47.70
2018-04-11T02:47:11.867Z,47.80
2018-04-11T02:49:38.070Z,47.80
2018-04-11T02:52:04.301Z,48.20
2018-04-11T02:54:30.893Z,47.90
2018-04-11T02:56:57.085Z,48.00
2018-04-11T02:59:23.390Z,48.00
2018-04-11T03:01:49.732Z,48.10
2018-04-11T03:04:16.029Z,48.10
2018-04-11T03:06:42.226Z,48.20
2018-04-11T03:09:08.445Z,48.30
2018-04-11T03:11:34.813Z,48.50
2018-04-11T03:14:01.310Z,48.50
2018-04-11T03:16:27.581Z,48.50
2018-04-11T03:18:53.810Z,48.60
2018-04-11T03:21:20.347Z,48.70
2018-04-11T03:23:46.571Z,48.80
2018-04-11T03:26:12.865Z,48.80
2018-04-11T03:28:39.887Z,49.00
2018-04-11T03:31:06.365Z,49.00
2018-04-11T03:33:32.880Z,48.90
2018-04-11T03:35:59.322Z,49.10
2018-04-11T03:38:25.615Z,49.30
2018-04-11T03:40:52.230Z,49.40
2018-04-11T03:43:20.075Z,49.50
2018-04-11T03:45:46.663Z,49.50
2018-04-11T03:48:13.329Z,49.50
2018-04-11T03:50:39.511Z,49.60
2018-04-11T03:53:06.494Z,49.90
2018-04-11T03:55:33.493Z,50.00
2018-04-11T03:57:59.749Z,50.00
2018-04-11T04:00:25.973Z,50.10
2018-04-11T04:02:53.035Z,50.30
2018-04-11T04:05:19.289Z,50.30
2018-04-11T04:07:45.570Z,50.40
2018-04-11T04:10:11.763Z,50.50
2018-04-11T04:12:38.012Z,50.50
2018-04-11T04:15:16.677Z,50.60
2018-04-11T04:17:55.641Z,50.60
2018-04-11T04:20:31.946Z,50.50
2018-04-11T04:22:58.201Z,50.60
2018-04-11T04:25:25.697Z,50.50
2018-04-11T04:27:51.919Z,50.60
2018-04-11T04:30:18.071Z,50.70
2018-04-11T04:32:44.452Z,50.70
2018-04-11T04:35:10.753Z,50.50
2018-04-11T04:37:37.756Z,50.80
2018-04-11T04:40:03.972Z,50.80
2018-04-11T04:42:30.169Z,50.80
2018-04-11T04:44:56.294Z,50.80
2018-04-11T04:47:23.281Z,50.90
2018-04-11T04:49:49.505Z,50.90
2018-04-11T04:52:15.717Z,50.90
2018-04-11T04:54:42.644Z,51.00
2018-04-11T04:57:08.825Z,51.00
2018-04-11T04:59:35.008Z,51.00
2018-04-11T05:02:01.249Z,51.10
2018-04-11T05:04:27.401Z,51.10
2018-04-11T05:06:54.330Z,51.20
2018-04-11T05:09:21.245Z,51.20
2018-04-11T05:11:47.411Z,51.20
2018-04-11T05:14:13.681Z,51.20
2018-04-11T05:16:39.968Z,51.20
2018-04-11T05:19:06.142Z,51.20
2018-04-11T05:21:32.359Z,51.30
2018-04-11T05:23:59.331Z,51.90
2018-04-11T05:26:26.275Z,51.20
2018-04-11T05:28:53.165Z,51.20
2018-04-11T05:31:19.411Z,51.20
2018-04-11T05:33:45.599Z,51.10
2018-04-11T05:36:12.466Z,51.20
2018-04-11T05:38:38.634Z,51.20
2018-04-11T05:41:04.809Z,51.20
2018-04-11T05:43:30.982Z,51.30
2018-04-11T05:45:57.151Z,51.30
2018-04-11T05:48:23.299Z,51.30
2018-04-11T05:50:49.431Z,51.40
2018-04-11T05:53:16.443Z,52.10
2018-04-11T05:55:42.614Z,51.60
2018-04-11T05:58:08.797Z,51.80
2018-04-11T06:00:34.933Z,51.90
2018-04-11T06:03:01.078Z,51.80
2018-04-11T06:05:27.236Z,51.70
2018-04-11T06:07:53.426Z,51.40
2018-04-11T06:10:19.693Z,51.10
2018-04-11T06:12:45.859Z,50.90
2018-04-11T06:15:12.054Z,50.60
2018-04-11T06:17:38.452Z,50.40
2018-04-11T06:20:04.676Z,50.20
2018-04-11T06:22:30.870Z,50.10
2018-04-11T06:24:57.036Z,49.90
2018-04-11T06:27:23.246Z,49.70
2018-04-11T06:29:49.445Z,49.50
2018-04-11T06:32:15.644Z,49.40
2018-04-11T06:34:41.740Z,49.30
2018-04-11T06:37:07.925Z,49.00
2018-04-11T06:39:34.272Z,48.90
2018-04-11T06:42:00.457Z,48.80
2018-04-11T06:44:26.622Z,48.70
2018-04-11T06:46:52.766Z,48.70
2018-04-11T06:49:18.892Z,48.70
2018-04-11T06:51:45.160Z,48.70
2018-04-11T06:54:11.294Z,48.70
2018-04-11T06:56:37.446Z,48.70
2018-04-11T06:59:03.585Z,48.70
2018-04-11T07:01:29.719Z,48.70
2018-04-11T07:03:56.686Z,48.60
2018-04-11T07:06:23.544Z,48.50
2018-04-11T07:08:49.690Z,48.50
2018-04-11T07:11:15.874Z,48.40
2018-04-11T07:13:42.031Z,48.40
2018-04-11T07:16:08.169Z,48.50
2018-04-11T07:18:34.800Z,48.50
2018-04-11T07:21:01.050Z,48.60
2018-04-11T07:23:27.220Z,48.60
2018-04-11T07:25:53.352Z,48.70
2018-04-11T07:28:19.575Z,48.70
2018-04-11T07:30:45.720Z,48.70
2018-04-11T07:33:11.889Z,48.80
2018-04-11T07:35:38.050Z,48.70
2018-04-11T07:38:04.996Z,48.50
2018-04-11T07:40:31.176Z,48.50
2018-04-11T07:42:57.381Z,48.50
2018-04-11T07:45:23.571Z,48.60
2018-04-11T07:47:49.721Z,48.80
2018-04-11T07:50:15.959Z,48.80
2018-04-11T07:52:42.880Z,49.00
2018-04-11T07:55:09.072Z,49.50
2018-04-11T07:57:35.267Z,48.90
2018-04-11T08:00:01.386Z,48.90
2018-04-11T08:02:27.596Z,48.70
2018-04-11T08:04:53.779Z,48.40
2018-04-11T08:07:20.010Z,47.70
2018-04-11T08:09:46.957Z,46.10
2018-04-11T08:12:13.149Z,46.10
2018-04-11T08:14:39.351Z,45.40
2018-04-11T08:17:05.523Z,45.00
2018-04-11T08:19:31.868Z,44.40
2018-04-11T08:21:58.085Z,43.80
2018-04-11T08:24:24.288Z,43.30
2018-04-11T08:26:50.493Z,43.10
2018-04-11T08:29:17.462Z,42.40
2018-04-11T08:31:43.609Z,42.40
2018-04-11T08:34:09.835Z,41.90
2018-04-11T08:36:35.978Z,40.80
2018-04-11T08:39:02.189Z,39.60
2018-04-11T08:41:28.437Z,38.60
2018-04-11T08:43:55.324Z,38.00
2018-04-11T08:46:21.449Z,37.90
2018-04-11T08:48:47.639Z,37.00
2018-04-11T08:51:14.550Z,35.90
2018-04-11T08:53:40.750Z,35.90
2018-04-11T08:56:06.903Z,35.70
2018-04-11T08:58:33.111Z,35.70
2018-04-11T09:00:59.228Z,36.00
2018-04-11T09:03:26.112Z,36.30
2018-04-11T09:06:02.697Z,36.30
2018-04-11T09:08:28.820Z,36.30
2018-04-11T09:10:54.954Z,36.10
2018-04-11T09:13:21.096Z,36.40
2018-04-11T09:15:47.224Z,36.10
2018-04-11T09:18:13.434Z,35.90
2018-04-11T09:20:39.575Z,35.70
2018-04-11T09:23:06.541Z,34.90
2018-04-11T09:25:32.704Z,34.80
2018-04-11T09:27:58.860Z,34.70
2018-04-11T09:30:25.039Z,35.30
2018-04-11T09:32:51.167Z,35.80
2018-04-11T09:35:17.356Z,35.90
2018-04-11T09:37:44.296Z,35.90
2018-04-11T09:40:10.434Z,35.80
2018-04-11T09:42:36.603Z,35.70
2018-04-11T09:45:02.826Z,36.20
2018-04-11T09:47:28.977Z,35.70
2018-04-11T09:49:55.199Z,35.40
2018-04-11T09:52:21.521Z,35.50
2018-04-11T09:54:47.680Z,35.70
2018-04-11T09:57:13.903Z,35.90
2018-04-11T09:59:40.113Z,35.40
2018-04-11T10:02:06.357Z,35.00
2018-04-11T10:04:32.556Z,34.50
2018-04-11T10:06:58.782Z,33.90
2018-04-11T10:09:24.938Z,33.20
2018-04-11T10:11:51.861Z,31.40
2018-04-11T10:14:18.004Z,31.40
2018-04-11T10:16:44.386Z,30.80
2018-04-11T10:19:10.567Z,30.40
2018-04-11T10:21:37.589Z,29.90
2018-04-11T10:24:03.812Z,29.80
2018-04-11T10:26:29.987Z,30.00
2018-04-11T10:28:56.172Z,30.00
2018-04-11T10:31:22.300Z,30.00
2018-04-11T10:33:48.424Z,30.00
2018-04-11T10:36:14.586Z,30.00
2018-04-11T10:38:40.792Z,29.90
2018-04-11T10:41:06.963Z,30.00
2018-04-11T10:43:33.161Z,30.20
2018-04-11T10:46:00.081Z,31.10
2018-04-11T10:48:26.989Z,31.30
2018-04-11T10:50:53.172Z,31.20
2018-04-11T10:53:20.069Z,31.50
2018-04-11T10:55:46.203Z,31.50
2018-04-11T10:58:12.332Z,31.70
2018-04-11T11:00:38.527Z,31.90
2018-04-11T11:03:05.445Z,32.30
2018-04-11T11:05:31.635Z,32.20
2018-04-11T11:07:57.776Z,32.40
2018-04-11T11:10:23.912Z,32.70
2018-04-11T11:12:50.115Z,32.70
2018-04-11T11:15:16.980Z,33.30
2018-04-11T11:17:43.287Z,33.30
2018-04-11T11:20:09.476Z,33.90
2018-04-11T11:22:35.662Z,34.30
2018-04-11T11:25:02.557Z,33.90
2018-04-11T11:27:28.810Z,33.80
2018-04-11T11:29:54.981Z,33.80
2018-04-11T11:32:21.892Z,33.20
2018-04-11T11:34:48.036Z,33.00
2018-04-11T11:37:14.178Z,32.60
2018-04-11T11:39:40.317Z,32.20
2018-04-11T11:42:07.216Z,31.40
2018-04-11T11:44:33.349Z,31.40
2018-04-11T11:46:59.589Z,30.90
2018-04-11T11:49:26.536Z,30.50
2018-04-11T11:51:52.758Z,31.00
2018-04-11T11:54:19.021Z,30.20
2018-04-11T11:56:45.923Z,29.80
2018-04-11T11:59:12.770Z,29.50
2018-04-11T12:01:38.971Z,29.50
2018-04-11T12:04:05.121Z,29.40
2018-04-11T12:06:31.268Z,29.40
2018-04-11T12:08:57.429Z,29.20
2018-04-11T12:11:23.576Z,29.00
2018-04-11T12:13:49.727Z,28.40
2018-04-11T12:16:15.941Z,28.10
2018-04-11T12:18:43.983Z,27.60
2018-04-11T12:21:10.156Z,27.60
2018-04-11T12:23:36.393Z,27.40
2018-04-11T12:26:02.664Z,27.20
2018-04-11T12:28:29.657Z,26.70
2018-04-11T12:30:55.900Z,26.70
2018-04-11T12:33:22.085Z,26.70
2018-04-11T12:35:49.153Z,27.10
2018-04-11T12:38:15.300Z,27.00
2018-04-11T12:40:41.448Z,27.20
2018-04-11T12:43:07.612Z,27.10
2018-04-11T12:45:33.843Z,27.10
2018-04-11T12:48:00.069Z,26.90
2018-04-11T12:50:26.278Z,26.70
2018-04-11T12:52:52.424Z,26.50
2018-04-11T12:55:18.576Z,26.40
2018-04-11T12:57:44.775Z,26.60
2018-04-11T13:00:10.967Z,26.90
2018-04-11T13:02:37.869Z,27.50
2018-04-11T13:05:04.041Z,27.40
2018-04-11T13:07:30.199Z,27.40
2018-04-11T13:09:57.076Z,27.30
2018-04-11T13:12:23.272Z,27.20
2018-04-11T13:14:50.199Z,27.20
2018-04-11T13:17:16.343Z,27.10
2018-04-11T13:19:43.510Z,27.30
2018-04-11T13:22:10.402Z,27.00
2018-04-11T13:24:36.571Z,27.00
2018-04-11T13:27:02.724Z,26.80
2018-04-11T13:29:32.524Z,26.60
2018-04-11T13:31:58.649Z,26.50
2018-04-11T13:34:24.788Z,26.50
2018-04-11T13:36:51.769Z,26.40
2018-04-11T13:39:18.092Z,26.30
2018-04-11T13:41:44.991Z,26.70
2018-04-11T13:44:11.112Z,26.70
2018-04-11T13:46:37.291Z,26.90
2018-04-11T13:49:03.469Z,27.30
2018-04-11T13:51:29.625Z,27.50
2018-04-11T13:53:55.796Z,27.70
2018-04-11T13:56:22.037Z,28.00
2018-04-11T13:58:48.969Z,28.50
2018-04-11T14:01:15.110Z,28.50
2018-04-11T14:03:41.321Z,28.60
2018-04-11T14:06:07.468Z,28.80
2018-04-11T14:08:33.635Z,29.00
2018-04-11T14:11:00.589Z,29.30
2018-04-11T14:13:27.468Z,29.40
2018-04-11T14:15:53.973Z,29.30
2018-04-11T14:18:20.868Z,29.40
2018-04-11T14:20:47.043Z,29.30
2018-04-11T14:23:13.199Z,29.80
2018-04-11T14:25:39.429Z,29.10
2018-04-11T14:28:06.400Z,28.70
2018-04-11T14:30:32.621Z,28.70
2018-04-11T14:32:58.829Z,28.70
2018-04-11T14:35:25.164Z,28.70
2018-04-11T14:37:51.391Z,28.80
2018-04-11T14:40:17.836Z,28.80
2018-04-11T14:42:44.096Z,28.80
2018-04-11T14:45:17.872Z,28.70
2018-04-11T14:47:44.830Z,28.70
2018-04-11T14:50:11.033Z,28.60
2018-04-11T14:52:37.186Z,28.70
2018-04-11T14:55:03.389Z,28.70
2018-04-11T14:57:29.650Z,28.80
2018-04-11T14:59:55.856Z,28.80
2018-04-11T15:02:22.085Z,29.00
2018-04-11T15:04:48.221Z,29.10
2018-04-11T15:07:14.447Z,29.10
2018-04-11T15:09:40.661Z,29.30
2018-04-11T15:12:06.821Z,29.30
2018-04-11T15:14:33.000Z,29.40
2018-04-11T15:16:59.217Z,29.50
2018-04-11T15:19:26.012Z,29.50
2018-04-11T15:21:52.353Z,29.60
2018-04-11T15:24:18.596Z,29.70
2018-04-11T15:26:45.543Z,30.00
2018-04-11T15:29:11.760Z,30.00
2018-04-11T15:31:37.962Z,30.00
2018-04-11T15:34:04.256Z,30.10
2018-04-11T15:36:31.227Z,30.20
2018-04-11T15:38:57.457Z,30.20
2018-04-11T15:41:23.659Z,30.20
2018-04-11T15:43:49.885Z,30.30
2018-04-11T15:46:29.068Z,30.60
2018-04-11T15:48:55.236Z,30.60
2018-04-11T15:51:22.161Z,31.00
2018-04-11T15:53:48.345Z,31.00
2018-04-11T15:56:14.565Z,31.00
2018-04-11T15:58:40.772Z,31.00
2018-04-11T16:01:06.932Z,31.00
2018-04-11T16:03:33.157Z,31.00
2018-04-11T16:05:59.345Z,31.00
2018-04-11T16:08:25.577Z,31.10
2018-04-11T16:10:51.727Z,31.20
2018-04-11T16:13:17.941Z,31.20
2018-04-11T16:15:44.145Z,31.40
2018-04-11T16:18:10.336Z,31.40
2018-04-11T16:20:37.288Z,31.70
2018-04-11T16:23:04.317Z,31.80
2018-04-11T16:25:30.870Z,31.80
2018-04-11T16:27:57.049Z,31.80
2018-04-11T16:30:23.268Z,31.90
2018-04-11T16:32:49.516Z,32.00
2018-04-11T16:35:15.740Z,32.20
2018-04-11T16:37:42.880Z,32.30
2018-04-11T16:40:09.079Z,32.20
2018-04-11T16:42:35.353Z,32.30
2018-04-11T16:45:02.555Z,32.50
2018-04-11T16:47:28.766Z,32.60
2018-04-11T16:49:54.930Z,32.70
2018-04-11T16:52:21.188Z,33.40
2018-04-11T16:54:47.451Z,32.90
2018-04-11T16:57:13.643Z,33.10
2018-04-11T16:59:39.838Z,33.20
2018-04-11T17:02:06.795Z,33.40
2018-04-11T17:04:32.978Z,33.40
2018-04-11T17:06:59.824Z,33.40
2018-04-11T17:09:26.050Z,33.40
2018-04-11T17:11:52.239Z,33.50
2018-04-11T17:14:18.510Z,33.60
2018-04-11T17:16:45.051Z,33.70
2018-04-11T17:19:11.325Z,33.70
2018-04-11T17:21:50.736Z,33.90
2018-04-11T17:24:29.373Z,33.90
2018-04-11T17:27:08.007Z,34.00
2018-04-11T17:32:42.066Z,34.30
2018-04-11T17:35:08.401Z,34.20
2018-04-11T17:37:34.740Z,34.50
2018-04-11T17:40:01.134Z,34.60
2018-04-11T17:42:28.656Z,34.90
2018-04-11T17:44:55.050Z,34.80
2018-04-11T17:47:21.340Z,34.90
2018-04-11T17:49:47.745Z,35.00
2018-04-11T17:52:14.045Z,35.10
2018-04-11T17:54:40.599Z,35.30
2018-04-11T17:57:07.085Z,35.50
2018-04-11T17:59:34.479Z,35.70
2018-04-11T18:02:00.676Z,35.60
2018-04-11T18:04:27.685Z,35.80
2018-04-11T18:06:54.665Z,36.00
2018-04-11T18:09:20.854Z,36.00
2018-04-11T18:11:47.920Z,36.20
2018-04-11T18:14:14.209Z,36.20
2018-04-11T18:16:40.883Z,36.30
2018-04-11T18:19:07.530Z,36.40
2018-04-11T18:21:34.903Z,36.60
2018-04-11T18:24:01.239Z,36.60
2018-04-11T18:26:27.521Z,36.70
2018-04-11T18:28:54.774Z,36.90
2018-04-11T18:31:21.134Z,36.90
2018-04-11T18:33:47.356Z,37.00
2018-04-11T18:36:13.477Z,37.00
2018-04-11T18:38:39.802Z,37.20
2018-04-11T18:41:06.053Z,37.20
2018-04-11T18:43:32.388Z,37.30
2018-04-11T18:45:58.748Z,37.30
2018-04-11T18:48:25.232Z,37.50
2018-04-11T18:50:52.290Z,37.50
2018-04-11T18:53:18.458Z,37.60
2018-04-11T18:55:44.878Z,37.70
2018-04-11T18:58:11.290Z,37.70
2018-04-11T19:00:37.555Z,37.80
2018-04-11T19:03:03.720Z,37.90
2018-04-11T19:05:29.933Z,38.00
2018-04-11T19:07:56.194Z,38.00
2018-04-11T19:10:23.796Z,38.10
2018-04-11T19:12:50.048Z,38.20
2018-04-11T19:15:16.194Z,38.30
2018-04-11T19:17:42.427Z,38.40
2018-04-11T19:20:09.348Z,38.50
2018-04-11T19:22:35.901Z,38.50
2018-04-11T19:25:02.271Z,38.60
2018-04-11T19:27:29.390Z,38.70
2018-04-11T19:29:55.788Z,38.70
2018-04-11T19:32:22.080Z,38.70
2018-04-11T19:34:48.468Z,38.90
2018-04-11T19:37:15.060Z,38.90
2018-04-11T19:39:41.406Z,39.00
2018-04-11T19:42:08.414Z,39.00
2018-04-11T19:44:34.825Z,39.10
2018-04-11T19:47:02.156Z,39.20
2018-04-11T19:49:29.402Z,38.80
2018-04-11T19:51:55.667Z,39.20
2018-04-11T19:54:21.910Z,39.30
2018-04-11T19:56:48.115Z,39.40
2018-04-11T19:59:14.594Z,39.40
2018-04-11T20:01:41.939Z,39.50
2018-04-11T20:04:09.357Z,39.60
2018-04-11T20:06:36.590Z,39.60
2018-04-11T20:09:03.251Z,39.60
2018-04-11T20:11:30.542Z,39.80
2018-04-11T20:13:59.331Z,40.00
2018-04-11T20:16:29.962Z,40.00
2018-04-11T20:18:56.524Z,40.00
2018-04-11T20:21:23.704Z,40.00
2018-04-11T20:23:50.190Z,40.20
2018-04-11T20:26:17.935Z,40.20
2018-04-11T20:28:44.493Z,40.30
2018-04-11T20:31:10.894Z,40.40
2018-04-11T20:33:37.255Z,40.50
2018-04-11T20:36:03.635Z,40.60
2018-04-11T20:38:30.455Z,40.70
2018-04-11T20:40:56.783Z,40.80
2018-04-11T20:43:24.300Z,41.50
2018-04-11T20:45:52.646Z,41.20
2018-04-11T20:48:18.970Z,41.20
2018-04-11T20:50:45.386Z,41.20
2018-04-11T20:53:12.568Z,41.60
2018-04-11T20:55:40.013Z,41.60
2018-04-11T20:58:07.201Z,41.60
2018-04-11T21:00:34.285Z,41.90
2018-04-11T21:03:01.004Z,41.90
2018-04-11T21:05:27.221Z,42.00
2018-04-11T21:07:53.810Z,42.20
2018-04-11T21:10:19.921Z,42.20
2018-04-11T21:12:46.154Z,42.50
2018-04-11T21:15:12.849Z,42.50
2018-04-11T21:17:39.009Z,42.50
2018-04-11T21:20:05.241Z,42.60
2018-04-11T21:22:31.485Z,42.80
2018-04-11T21:24:58.423Z,42.90
2018-04-11T21:27:24.764Z,42.90
2018-04-11T21:29:50.990Z,43.00
2018-04-11T21:32:17.930Z,43.30
2018-04-11T21:34:44.957Z,43.40
2018-04-11T21:37:11.168Z,43.40
2018-04-11T21:39:37.361Z,43.50
2018-04-11T21:42:03.613Z,43.60
2018-04-11T21:44:30.530Z,43.70
2018-04-11T21:46:56.842Z,43.70
2018-04-11T21:49:22.965Z,43.80
2018-04-11T21:51:49.232Z,43.90
2018-04-11T21:54:15.404Z,43.90
2018-04-11T21:56:41.630Z,44.10
2018-04-11T21:59:08.050Z,44.10
2018-04-11T22:01:36.797Z,44.30
2018-04-11T22:04:03.194Z,44.30
2018-04-11T22:06:29.427Z,44.40
2018-04-11T22:08:56.517Z,44.60
2018-04-11T22:11:22.728Z,44.50
2018-04-11T22:13:48.929Z,44.60
2018-04-11T22:16:15.173Z,44.70
2018-04-11T22:18:42.093Z,44.80
2018-04-11T22:21:08.261Z,44.80
2018-04-11T22:23:34.441Z,45.00
2018-04-11T22:26:01.046Z,45.10
2018-04-11T22:28:27.614Z,45.20
2018-04-11T22:30:53.798Z,45.30
2018-04-11T22:33:19.980Z,45.40
2018-04-11T22:35:46.148Z,45.40
2018-04-11T22:38:12.333Z,45.50
2018-04-11T22:40:38.543Z,45.60
2018-04-11T22:43:04.849Z,45.70
2018-04-11T22:45:31.895Z,46.40
2018-04-11T22:47:58.367Z,45.90
2018-04-11T22:50:24.509Z,46.00
2018-04-11T22:52:50.704Z,46.00
2018-04-11T22:55:17.273Z,46.10
2018-04-11T22:57:44.231Z,46.20
2018-04-11T23:00:10.388Z,46.20
2018-04-11T23:02:36.471Z,46.30
2018-04-11T23:05:02.771Z,46.30
2018-04-11T23:07:29.008Z,46.40
2018-04-11T23:09:55.200Z,46.50
2018-04-11T23:12:22.084Z,46.80
2018-04-11T23:14:48.324Z,46.80
2018-04-11T23:17:14.782Z,46.90
2018-04-11T23:19:41.013Z,46.90
2018-04-11T23:22:07.716Z,47.10
2018-04-11T23:24:34.790Z,47.20
2018-04-11T23:27:03.221Z,47.30
2018-04-11T23:29:29.547Z,47.30
2018-04-11T23:31:56.524Z,47.40
2018-04-11T23:34:22.785Z,47.40
2018-04-11T23:36:49.871Z,47.60
2018-04-11T23:39:16.065Z,47.60
2018-04-11T23:41:43.078Z,47.70
2018-04-11T23:44:09.304Z,47.80
2018-04-11T23:46:36.289Z,47.90
2018-04-11T23:49:03.272Z,47.90
2018-04-11T23:51:29.450Z,47.90
2018-04-11T23:53:55.621Z,48.00
2018-04-11T23:56:21.806Z,48.10
2018-04-11T23:58:48.003Z,48.10
